Florian Jäger

Scout - VfL Wolfsburg
3 Apr 2027
Samstag
Verarbeitung

Persönlichkeit

Anpassungsfähigkeit (11) Ehrgeiz (5) Kontroverse (3) Loyalität (11) Druck (10) Professionalität (12) Fairness (2) Temperament (4)

Profil

Trainerstil Demokratisch
Lizenz Nationale B
Entschlossenheit 10
Menschenführung 11
Motivation 8
Disziplin 7
Arbeitszufriedenheit
50%
Ermüdung
0%
Rolle Scout
Gehalt 24.0K p/W
Vertrag 14.03.2028

Leistung

Verhalten Normal
Trainingseffektivität
17%
Spielerentwicklung
75%
Verletzungsprävention
35%
Taktische Umsetzung
30%

Letzte Ereignisse

Nahm an einer Scouting-Besprechung teil jetzt
Nahm an einer Scouting-Besprechung teil jetzt
Spieler begutachtet jetzt
Spieler begutachtet 7T her
Spieler begutachtet 7T her
Spieler begutachtet 7T her
Spieler begutachtet 7T her
Spieler begutachtet 7T her

Aktuell beobachtet

184
Spieler Verein Status Fähigkeit Vertrauen Beobachtet Zuletzt beobachtet Letzte Stimme
Ben Ahmed Kohili Paradou Aktiv 112 / 100 40% 3 02.04.2027 -
Tiago Pucciarelli FK Senica Aktiv 99 / 113 40% 1 02.04.2027 -
Samy Merheg Alverca Aktiv 113 / 110 40% 1 02.04.2027 -
Efraín Álvarez Guadalajara Aktiv 121 / 132 40% 3 30.03.2027 -
Ognjen Bondžulić Mladost Lucani Aktiv 95 / 112 40% 3 30.03.2027 -
Isi Palazón Rayo Vallecano Aktiv 142 / 146 40% 2 30.03.2027 -
Luís Esteves Atlas Aktiv 133 / 131 40% 2 30.03.2027 -
Jonás Luna Osasuna Aktiv 109 / 116 40% 1 30.03.2027 -
Marcel Ruiz Toluca Aktiv 154 / 139 40% 6 27.03.2027 -
Kauã Elias Shakhtar Aktiv 130 / 131 40% 2 27.03.2027 -
Roger Brugué Levante Aktiv 125 / 130 40% 2 27.03.2027 -
Adnan Courtois KV Oostende Aktiv 117 / 132 40% 2 27.03.2027 -
Chiquinho Alverca Aktiv 136 / 128 40% 1 27.03.2027 -
Markus Jensen Nacional Aktiv 109 / 123 40% 1 27.03.2027 -
Orbelín Pineda Monterrey Aktiv 139 / 127 40% 3 25.03.2027 -
Christian Kofane Bayer Leverkusen Aktiv 138 / 148 40% 2 25.03.2027 -
Malcom Al Jazira Aktiv 157 / 146 40% 1 25.03.2027 -
Majid Dejagah Gostaresh Foulad Aktiv 126 / 146 40% 1 25.03.2027 -
Arkaitz Mariezkurrena Real Sociedad Aktiv 121 / 128 40% 6 23.03.2027 -
Mert Kömür FC Augsburg Aktiv 132 / 142 40% 1 23.03.2027 -
Sayed Abu Farchi Maccabi Tel Aviv Aktiv 119 / 132 40% 1 23.03.2027 -
Marcelo Allende Mamelodi Sundowns Aktiv 124 / 142 40% 2 22.03.2027 -
Zizo Al Ahly Aktiv 137 / 138 40% 1 22.03.2027 -
Carlos Rodríguez Cruz Azul Aktiv 130 / 132 40% 5 20.03.2027 -
Fashion Sakala Al-Fayha Aktiv 141 / 130 40% 1 20.03.2027 -
Agustín Palavecino Cruz Azul Aktiv 144 / 134 40% 3 19.03.2027 -
Maher Carrizo Ajax Aktiv 121 / 119 40% 2 19.03.2027 -
Óliver Monterrey Aktiv 136 / 131 40% 2 19.03.2027 -
Yannik Wagner Heidenheim Aktiv 105 / 100 40% 1 19.03.2027 -
Matvii Ponomarenko Dynamo Kyiv Aktiv 116 / 115 40% 4 16.03.2027 -
Leo Castledine Middlesbrough Aktiv 125 / 135 40% 2 16.03.2027 -
Ayoub Oufkir AZ Aktiv 131 / 139 40% 2 16.03.2027 -
Luke Baartman Chippa United Aktiv 108 / 97 40% 2 15.03.2027 -
Dominik Baumgartner Mattersburg Aktiv 95 / 107 40% 2 15.03.2027 -
David Kalokoh Ajax Aktiv 109 / 128 40% 1 15.03.2027 -
José Arnáiz Granada Aktiv 132 / 117 40% 1 15.03.2027 -
Nemanja Radonjić Crvena Zvezda Aktiv 139 / 120 40% 1 15.03.2027 -
Axel Openda KV Oostende Aktiv 141 / 142 40% 2 13.03.2027 -
Oumar Camara Vitoria Guimaraes Aktiv 120 / 121 40% 2 13.03.2027 -
Dom Ballard Leyton Orient Aktiv 120 / 133 40% 1 13.03.2027 -
Iwan Morgan Grimsby Town Aktiv 114 / 122 40% 1 09.03.2027 -
Serge Daura Gazelle Garoua Aktiv 102 / 93 40% 1 09.03.2027 -
Fernando Valenzuela Queretaro Aktiv 124 / 143 40% 1 08.03.2027 -
Percy Erasmus SuperSport United Aktiv 138 / 134 40% 1 06.03.2027 -
Achraf Bencharki Al Ahly Aktiv 132 / 123 40% 1 06.03.2027 -
Jesús Ricardo Angulo Toluca Aktiv 143 / 148 40% 1 06.03.2027 -
Uchenna Ogundu FC Augsburg Aktiv 124 / 134 40% 1 06.03.2027 -
Roberto Iliev Slavia Sofia Aktiv 100 / 103 40% 1 06.03.2027 -
Jones El-Abdellaoui Celta Aktiv 132 / 136 40% 4 03.03.2027 -
José Paradela Cruz Azul Aktiv 134 / 144 40% 6 02.03.2027 -
Sebastián Córdova Pumas UNAM Aktiv 147 / 140 40% 1 02.03.2027 -
Livan Burcu Union Berlin Verloren 129 / 115 65% 1 25.01.2027 Befürworten
Matteo di Giusto Luzern Aktiv 122 / 113 40% 2 05.01.2027 -
Milson Al Jazira Aktiv 118 / 108 40% 2 05.01.2027 -
Felipe Augusto Zenit Aktiv 136 / 129 40% 1 05.01.2027 -
Luciano Gondou CSKA Moscow Aktiv 122 / 123 40% 2 03.01.2027 -
Michy Fellaini KV Oostende Aktiv 133 / 138 40% 3 03.01.2027 -
Vinicinho Bragantino Aktiv 132 / 138 40% 1 03.01.2027 -
Esequiel Barco Spartak Moscow Aktiv 139 / 132 40% 4 31.12.2026 -
Kingsley Coman Al-Nassr Aktiv 156 / 171 40% 1 31.12.2026 -
Alexis Vega Toluca Aktiv 135 / 162 40% 4 30.12.2026 -
Grischa Prömel Heidenheim Aktiv 143 / 145 40% 1 30.12.2026 -
Lukáš Provod Slavia Prague Aktiv 139 / 131 40% 2 29.12.2026 -
Pedrinho Shakhtar Aktiv 131 / 145 40% 1 29.12.2026 -
Nahuel Tenaglia Alavés Aktiv 130 / 135 40% 1 29.12.2026 -
Bernardo Fontes Braga Aktiv 128 / 136 40% 1 27.12.2026 -
Oleksandr Saputin Zorya Aktiv 113 / 127 40% 1 27.12.2026 -
Josip Juranović Union Berlin Aktiv 141 / 130 40% 2 26.12.2026 -
Jesus Sinisterra Sevilla Aktiv 151 / 154 40% 4 25.12.2026 -
Matheus Pereira Cruzeiro Aktiv 156 / 150 40% 3 25.12.2026 -
Theo Bongonda Al-Faisaly Aktiv 123 / 142 40% 1 24.12.2026 -
Rocco Vata Watford Aktiv 117 / 135 40% 4 22.12.2026 -
Furkan Dursun Thun Aktiv 102 / 97 40% 8 22.12.2026 -
Ajay Matthews Millwall Aktiv 95 / 115 40% 2 22.12.2026 -
Borna Knezović Casarano Aktiv 101 / 113 40% 4 21.12.2026 -
Benjamin Henrichs RB Leipzig Aktiv 144 / 136 40% 2 20.12.2026 -
Max Moerstedt TSG Hoffenheim Aktiv 109 / 143 40% 2 19.12.2026 -
Eliezer Mayenda Stade Rennais Aktiv 123 / 127 40% 2 16.12.2026 -
Luiz Júnior Villarreal Aktiv 140 / 146 40% 3 15.12.2026 -
Yorbe Vertessen Red Bull Salzburg Aktiv 124 / 137 40% 1 15.12.2026 -
Gonzalo Plata Dinamo Moscow Aktiv 139 / 143 40% 1 15.12.2026 -
Alvyn Sanches Young Boys Aktiv 127 / 134 40% 3 13.12.2026 -
Ilyes Housni AS Nancy Aktiv 106 / 122 40% 2 13.12.2026 -
Ezequiel Bullaude Santos Laguna Aktiv 124 / 110 40% 1 13.12.2026 -
Julian Weigl Al-Qadisiyah Aktiv 144 / 160 40% 1 09.12.2026 -
André-Franck Zambo Anguissa Napoli Aktiv 167 / 154 40% 1 09.12.2026 -
Bernardo TSG Hoffenheim Aktiv 142 / 146 40% 1 07.12.2026 -
Héctor Bellerín Betis Aktiv 141 / 148 40% 2 06.12.2026 -
Marvin Keller Young Boys Aktiv 136 / 149 40% 6 04.12.2026 -
Guilherme Fernandes Córdoba Aktiv 136 / 130 40% 3 04.12.2026 -
Félix Lemaréchal Club Brugge Aktiv 137 / 142 40% 2 04.12.2026 -
Mattia Zanotti Lugano Aktiv 134 / 124 40% 1 04.12.2026 -
Bilal Bayazıt Kayserispor Aktiv 137 / 125 40% 1 04.12.2026 -
Justin Hammel Grasshopper Aktiv 118 / 127 40% 3 03.12.2026 -
Robin Risser RC Lens Aktiv 142 / 147 40% 1 03.12.2026 -
Lucas Lund Viborg Aktiv 109 / 100 40% 1 03.12.2026 -
Adriano Bertaccini Anderlecht Aktiv 129 / 132 40% 1 02.12.2026 -
Pablo Solari Spartak Moscow Aktiv 138 / 127 40% 1 02.12.2026 -
Haissem Hassan Bloemfontein Celtic Aktiv 125 / 129 40% 3 01.12.2026 -
Gorka Guruzeta Athletic Bilbao Aktiv 148 / 148 40% 1 01.12.2026 -
Metinho Basel Aktiv 138 / 120 40% 1 01.12.2026 -
Adrià Altimira Deportivo La Coruña Aktiv 132 / 120 40% 1 01.12.2026 -
David Fernández O'Higgins Aktiv 103 / 106 40% 3 26.11.2026 -
Dženan Pejčinović VfB Stuttgart Aktiv 115 / 141 40% 1 26.11.2026 -
Tristan Degreef Anderlecht Aktiv 126 / 135 40% 2 24.11.2026 -
Urko Izeta Cádiz Aktiv 130 / 139 40% 1 24.11.2026 -
Isaac Schmidt Young Boys Aktiv 127 / 117 40% 1 24.11.2026 -
Donnell McNeilly Nottingham Forest Aktiv 115 / 114 40% 2 21.11.2026 -
Conrad Harder RB Leipzig Aktiv 134 / 152 40% 2 20.11.2026 -
Matthieu Epolo Standard Liege Aktiv 122 / 132 40% 2 19.11.2026 -
Lazar Carević Famalicao Aktiv 125 / 134 40% 1 19.11.2026 -
Anton Kade FC Augsburg Aktiv 122 / 124 40% 1 17.11.2026 -
Robert Skov Union Berlin Aktiv 130 / 146 40% 1 15.11.2026 -
Gorka Carrera Real Sociedad Aktiv 119 / 110 40% 3 14.11.2026 -
Sandro Las Palmas Aktiv 133 / 146 40% 2 12.11.2026 -
Kenny Tete Fulham Aktiv 144 / 155 40% 1 11.11.2026 -
Alexander Lyng SonderjyskE Aktiv 112 / 127 40% 5 08.11.2026 -
Iván Martín Racing Club Aktiv 153 / 139 40% 1 07.11.2026 -
Luciano Jachfe Nueva Chicago Aktiv 111 / 130 40% 3 06.11.2026 -
Ryan Gauld Vancouver Whitecaps Aktiv 137 / 137 40% 1 06.11.2026 -
Niklas Steffen Thun Aktiv 116 / 119 40% 1 06.11.2026 -
Mio Backhaus SC Freiburg Aktiv 127 / 142 40% 4 05.11.2026 -
Carl Rushworth Coventry City Aktiv 141 / 137 40% 2 05.11.2026 -
Elia Caprile Cagliari Aktiv 142 / 143 40% 1 05.11.2026 -
Brais Méndez Columbus Crew Aktiv 160 / 139 40% 1 03.11.2026 -
Jaminton Campaz Rosario Central Aktiv 140 / 127 40% 1 02.11.2026 -
Sorriso Famalicao Aktiv 132 / 119 40% 1 02.11.2026 -
Ritsu Doan Gamba Osaka Aktiv 141 / 140 40% 1 02.11.2026 -
Michael Cooper Sheffield United Aktiv 120 / 121 40% 2 29.10.2026 -
Gonzalo Crettaz NEC Aktiv 134 / 140 40% 1 29.10.2026 -
Karl Hein Werder Bremen Aktiv 139 / 149 40% 3 27.10.2026 Beobachten
Fabiano Rust Feyenoord Aktiv 102 / 123 40% 1 27.10.2026 -
Christian Früchtl Red Bull Salzburg Aktiv 113 / 126 40% 4 24.10.2026 -
Archie Goodwin Charlotte Football Club Aktiv 94 / 116 40% 1 24.10.2026 -
Kostantis Tzolakis Hull City Aktiv 139 / 144 40% 1 22.10.2026 -
César Ibáñez Huracán Aktiv 133 / 138 40% 1 22.10.2026 -
Alan Lescano Argentinos Juniors Aktiv 116 / 139 40% 1 22.10.2026 -
Matko Miljevic Racing Club Aktiv 125 / 121 40% 1 22.10.2026 -
Iñaki Peña Panathinaikos Aktiv 137 / 143 40% 1 19.10.2026 -
Jamie Cumming Oxford United Aktiv 118 / 110 40% 1 19.10.2026 -
Nicolás Fernández Mercau New York City Aktiv 137 / 128 40% 1 17.10.2026 -
Exequiel Zeballos Boca Juniors Aktiv 140 / 132 40% 1 16.10.2026 -
Fidel Ambríz Monterrey Aktiv 128 / 122 40% 1 16.10.2026 -
Abubakr Barry Red Bull Salzburg Aktiv 127 / 126 40% 1 14.10.2026 -
Facundo Mura Inter Miami CF Aktiv 119 / 109 40% 1 14.10.2026 -
Nikolay Zlatev Cherno More Aktiv 105 / 99 40% 1 13.10.2026 -
Diego Conde Villarreal Aktiv 138 / 149 40% 2 11.10.2026 -
Anthony Racioppi Sion Aktiv 122 / 112 40% 1 09.10.2026 -
Mauro Silveira Junior Aktiv 105 / 118 40% 3 07.10.2026 -
Anthony Patterson Wrexham Aktiv 132 / 118 40% 1 07.10.2026 -
Arijanet Murić Sassuolo Aktiv 140 / 146 40% 1 07.10.2026 -
Pascal Loretz Luzern Aktiv 128 / 124 40% 2 05.10.2026 -
Grégoire Coudert Burnley Aktiv 119 / 126 40% 2 04.10.2026 -
Radek Vítek Middlesbrough Aktiv 125 / 147 40% 1 04.10.2026 -
Nicolás Sumavil Platense Aktiv 111 / 111 40% 1 04.10.2026 -
Axel Alderweireld KV Oostende Aktiv 137 / 129 40% 3 29.09.2026 -
Alex Luna Instituto Aktiv 119 / 116 40% 1 29.09.2026 -
James Trafford Leeds United Aktiv 137 / 139 40% 2 27.09.2026 -
Patrick Schulte Columbus Crew Aktiv 108 / 112 40% 1 27.09.2026 -
Marquinhos Spartak Moscow Aktiv 123 / 124 40% 1 27.09.2026 -
Alan Velasco Boca Juniors Aktiv 127 / 149 40% 1 27.09.2026 -
Tomás Chancalay Minnesota United FC Aktiv 136 / 107 40% 1 27.09.2026 -
Diego Lainez Tigres Aktiv 116 / 142 40% 2 26.09.2026 -
Riqui Puig LA Galaxy Aktiv 145 / 120 40% 1 26.09.2026 -
Brian Rodríguez Club America Aktiv 115 / 120 40% 1 26.09.2026 -
Ilyas Ansah Union Berlin Aktiv 130 / 126 40% 1 23.09.2026 -
Philip Otele Basel Aktiv 127 / 137 40% 1 21.09.2026 -
Maurits Kjærgaard Red Bull Salzburg Aktiv 125 / 128 40% 1 21.09.2026 -
Gabriel Brazão Santos Aktiv 145 / 121 40% 1 19.09.2026 -
Thalys Almería Aktiv 109 / 134 40% 2 17.09.2026 -
Vitor Roque Palmeiras Aktiv 128 / 133 40% 3 15.09.2026 -
Will Lankshear Middlesbrough Aktiv 128 / 130 40% 2 15.09.2026 -
Felipe Zenobio Tigre Aktiv 136 / 128 40% 2 15.09.2026 -
Hugo Souza Corinthians Aktiv 138 / 153 40% 1 15.09.2026 -
Enzo Vázquez Central Norte Aktiv 100 / 127 40% 1 15.09.2026 -
Erik Lira Cruz Azul Aktiv 136 / 138 40% 1 14.09.2026 -
Leandro Lozano Boca Juniors Aktiv 139 / 105 40% 1 14.09.2026 -
John Pulskamp Sporting Kansas City Aktiv 115 / 133 40% 1 08.09.2026 -
Ezekiel Kwame Alladoh Philadelphia Union Aktiv 115 / 139 40% 1 04.09.2026 -
Julián Vignolo Toulouse FC Aktiv 102 / 122 40% 1 30.08.2026 -
Rayan Fofana RC Lens Aktiv 124 / 131 40% 1 26.08.2026 -
Jacob Peter Hödl Austria Wien Aktiv 117 / 130 40% 1 17.08.2026 -
Taiwo Awoniyi Coventry City Aktiv 136 / 128 40% 1 01.08.2026 -
Igor Jesus Nottingham Forest Aktiv 140 / 126 40% 1 01.08.2026 -